createdAt,value
2018-04-18T00:01:34.230Z,63.80
2018-04-18T00:04:00.544Z,56.57
2018-04-18T00:06:27.599Z,58.30
2018-04-18T00:08:53.899Z,56.40
2018-04-18T00:11:20.308Z,60.70
2018-04-18T00:13:46.570Z,56.00
2018-04-18T00:16:12.952Z,69.80
2018-04-18T00:18:39.218Z,64.23
2018-04-18T00:21:05.658Z,66.27
2018-04-18T00:23:31.937Z,57.83
2018-04-18T00:25:58.295Z,58.00
2018-04-18T00:28:24.623Z,59.17
2018-04-18T00:30:51.670Z,67.00
2018-04-18T00:33:17.958Z,59.10
2018-04-18T00:35:45.081Z,61.60
2018-04-18T00:38:11.376Z,64.40
2018-04-18T00:40:37.678Z,57.10
2018-04-18T00:43:03.992Z,68.20
2018-04-18T00:45:31.029Z,65.13
2018-04-18T00:47:57.345Z,62.77
2018-04-18T00:50:23.643Z,59.43
2018-04-18T00:52:49.943Z,63.90
2018-04-18T00:55:16.983Z,73.33
2018-04-18T00:57:43.994Z,59.70
2018-04-18T01:00:10.719Z,63.17
2018-04-18T01:02:37.038Z,65.60
2018-04-18T01:05:03.308Z,66.10
2018-04-18T01:07:29.600Z,63.33
2018-04-18T01:09:55.881Z,58.30
2018-04-18T01:12:22.203Z,59.73
2018-04-18T01:14:48.563Z,61.10
2018-04-18T01:17:15.959Z,57.77
2018-04-18T01:19:42.252Z,68.80
2018-04-18T01:22:08.579Z,60.73
2018-04-18T01:24:35.605Z,57.57
2018-04-18T01:27:01.935Z,60.37
2018-04-18T01:29:29.086Z,67.00
2018-04-18T01:31:55.452Z,66.50
2018-04-18T01:34:21.769Z,66.97
2018-04-18T01:36:48.801Z,64.23
2018-04-18T01:39:15.886Z,65.30
2018-04-18T01:41:42.238Z,64.30
2018-04-18T01:44:08.551Z,63.80
2018-04-18T01:46:34.823Z,67.90
2018-04-18T01:49:19.673Z,62.60
2018-04-18T01:51:46.000Z,59.67
2018-04-18T01:54:12.321Z,63.27
2018-04-18T01:56:38.645Z,56.70
2018-04-18T01:59:04.916Z,62.83
2018-04-18T02:01:31.173Z,55.53
2018-04-18T02:03:58.173Z,59.10
2018-04-18T02:06:24.475Z,64.03
2018-04-18T02:08:50.793Z,60.67
2018-04-18T02:11:17.099Z,57.87
2018-04-18T02:13:43.403Z,55.80
2018-04-18T02:16:09.738Z,55.27
2018-04-18T02:18:36.366Z,49.83
2018-04-18T02:21:02.691Z,51.87
2018-04-18T02:23:28.988Z,60.33
2018-04-18T02:25:55.322Z,51.83
2018-04-18T02:28:21.607Z,53.67
2018-04-18T02:30:47.908Z,61.60
2018-04-18T02:33:14.196Z,55.60
2018-04-18T02:35:40.534Z,47.60
2018-04-18T02:38:06.904Z,46.67
2018-04-18T02:40:33.188Z,46.10
2018-04-18T02:43:00.185Z,51.80
2018-04-18T02:45:26.448Z,47.43
2018-04-18T02:47:52.738Z,46.20
2018-04-18T02:50:19.065Z,51.00
2018-04-18T02:52:45.354Z,48.50
2018-04-18T02:55:11.639Z,52.27
2018-04-18T02:57:37.957Z,49.07
2018-04-18T03:00:04.258Z,50.80
2018-04-18T03:02:31.954Z,45.53
2018-04-18T03:04:58.253Z,39.70
2018-04-18T03:07:24.590Z,45.37
2018-04-18T03:09:50.876Z,44.37
2018-04-18T03:12:17.223Z,40.67
2018-04-18T03:14:44.323Z,42.00
2018-04-18T03:17:10.621Z,37.13
2018-04-18T03:19:37.089Z,46.13
2018-04-18T03:22:03.432Z,43.80
2018-04-18T03:24:29.759Z,44.80
2018-04-18T03:26:56.070Z,44.67
2018-04-18T03:29:22.376Z,42.67
2018-04-18T03:31:48.650Z,43.50
2018-04-18T03:34:14.945Z,36.63
2018-04-18T03:36:41.293Z,41.67
2018-04-18T03:39:07.560Z,45.20
2018-04-18T03:41:33.828Z,45.83
2018-04-18T03:44:00.904Z,38.73
2018-04-18T03:46:27.152Z,45.90
2018-04-18T03:48:53.485Z,42.57
2018-04-18T03:51:19.811Z,49.47
2018-04-18T03:53:46.168Z,46.50
2018-04-18T03:56:12.488Z,47.20
2018-04-18T03:58:38.902Z,40.00
2018-04-18T04:01:05.201Z,39.67
2018-04-18T04:03:31.485Z,38.50
2018-04-18T04:05:57.782Z,35.77
2018-04-18T04:08:24.144Z,34.43
2018-04-18T04:10:50.421Z,42.83
2018-04-18T04:13:17.541Z,44.93
2018-04-18T04:15:44.561Z,37.33
2018-04-18T04:18:29.621Z,43.30
2018-04-18T04:21:14.448Z,47.10
2018-04-18T04:24:00.175Z,42.23
2018-04-18T04:26:26.438Z,38.77
2018-04-18T04:28:52.745Z,38.50
2018-04-18T04:31:19.058Z,39.73
2018-04-18T04:33:45.340Z,37.93
2018-04-18T04:36:11.678Z,38.03
2018-04-18T04:38:38.712Z,36.23
2018-04-18T04:41:04.987Z,34.63
2018-04-18T04:43:32.335Z,34.93
2018-04-18T04:45:58.669Z,35.30
2018-04-18T04:48:24.969Z,34.83
2018-04-18T04:50:52.077Z,32.13
2018-04-18T04:53:18.393Z,27.60
2018-04-18T04:55:44.679Z,31.77
2018-04-18T04:58:10.969Z,30.90
2018-04-18T05:00:37.278Z,38.80
2018-04-18T05:03:03.541Z,32.83
2018-04-18T05:05:29.932Z,33.13
2018-04-18T05:07:56.224Z,34.20
2018-04-18T05:10:22.495Z,30.73
2018-04-18T05:12:48.856Z,31.80
2018-04-18T05:15:15.163Z,34.57
2018-04-18T05:17:41.516Z,40.67
2018-04-18T05:20:07.819Z,31.83
2018-04-18T05:22:34.230Z,31.57
2018-04-18T05:25:01.264Z,31.03
2018-04-18T05:27:27.559Z,27.87
2018-04-18T05:29:53.923Z,31.73
2018-04-18T05:32:20.323Z,24.53
2018-04-18T05:34:46.602Z,24.27
2018-04-18T05:37:13.660Z,24.93
2018-04-18T05:39:40.690Z,22.17
2018-04-18T05:42:06.981Z,17.90
2018-04-18T05:44:33.308Z,25.43
2018-04-18T05:46:59.593Z,20.67
2018-04-18T05:49:26.654Z,27.00
2018-04-18T05:51:52.971Z,22.77
2018-04-18T05:54:20.009Z,27.77
2018-04-18T05:56:46.321Z,18.67
2018-04-18T05:59:12.629Z,22.30
2018-04-18T06:01:38.984Z,24.50
2018-04-18T06:04:05.282Z,22.77
2018-04-18T06:06:31.607Z,23.00
2018-04-18T06:08:58.661Z,25.03
2018-04-18T06:11:24.955Z,26.70
2018-04-18T06:13:51.996Z,19.43
2018-04-18T06:16:19.045Z,17.73
2018-04-18T06:18:46.067Z,23.73
2018-04-18T06:21:12.400Z,23.83
2018-04-18T06:23:38.704Z,20.00
2018-04-18T06:26:04.989Z,20.07
2018-04-18T06:28:32.007Z,17.90
2018-04-18T06:30:58.257Z,24.40
2018-04-18T06:33:25.311Z,24.77
2018-04-18T06:35:52.345Z,17.40
2018-04-18T06:38:25.628Z,21.53
2018-04-18T06:40:51.950Z,17.40
2018-04-18T06:43:18.243Z,20.73
2018-04-18T06:45:44.547Z,21.37
2018-04-18T06:48:11.629Z,22.47
2018-04-18T06:50:38.034Z,18.53
2018-04-18T06:53:05.150Z,26.07
2018-04-18T06:55:31.523Z,21.03
2018-04-18T06:57:57.846Z,17.50
2018-04-18T07:00:24.169Z,31.50
2018-04-18T07:02:51.288Z,21.20
2018-04-18T07:05:17.610Z,27.10
2018-04-18T07:07:43.988Z,16.60
2018-04-18T07:10:11.030Z,16.10
2018-04-18T07:12:38.077Z,19.90
2018-04-18T07:15:05.129Z,14.93
2018-04-18T07:17:32.132Z,18.77
2018-04-18T07:19:58.407Z,19.00
2018-04-18T07:22:25.477Z,13.97
2018-04-18T07:24:51.819Z,21.57
2018-04-18T07:27:18.107Z,12.40
2018-04-18T07:29:45.201Z,18.10
2018-04-18T07:32:11.519Z,20.33
2018-04-18T07:34:37.801Z,15.53
2018-04-18T07:37:04.130Z,13.70
2018-04-18T07:39:30.513Z,16.43
2018-04-18T07:41:57.720Z,23.47
2018-04-18T07:44:24.026Z,13.23
2018-04-18T07:46:50.387Z,21.57
2018-04-18T07:49:16.725Z,16.47
2018-04-18T07:51:43.816Z,15.90
2018-04-18T07:54:10.103Z,21.77
2018-04-18T07:56:36.671Z,11.80
2018-04-18T07:59:03.001Z,12.77
2018-04-18T08:01:29.233Z,14.40
2018-04-18T08:03:55.526Z,13.40
2018-04-18T08:06:21.920Z,11.73
2018-04-18T08:08:48.237Z,10.30
2018-04-18T08:11:14.640Z,15.43
2018-04-18T08:13:41.705Z,16.83
2018-04-18T08:16:07.998Z,14.77
2018-04-18T08:18:34.382Z,17.37
2018-04-18T08:21:00.766Z,12.33
2018-04-18T08:23:27.096Z,14.50
2018-04-18T08:25:55.686Z,16.47
2018-04-18T08:28:22.756Z,13.30
2018-04-18T08:30:49.088Z,15.90
2018-04-18T08:33:15.424Z,11.20
2018-04-18T08:35:41.749Z,16.97
2018-04-18T08:38:08.837Z,13.57
2018-04-18T08:40:35.195Z,15.00
2018-04-18T08:43:01.497Z,14.50
2018-04-18T08:45:27.826Z,19.43
2018-04-18T08:47:54.116Z,12.77
2018-04-18T08:50:21.173Z,14.17
2018-04-18T08:52:47.535Z,14.93
2018-04-18T08:55:13.835Z,13.00
2018-04-18T08:57:40.168Z,17.80
2018-04-18T09:00:06.509Z,13.13
2018-04-18T09:02:32.867Z,12.53
2018-04-18T09:04:59.227Z,17.70
2018-04-18T09:07:25.596Z,14.53
2018-04-18T09:09:51.902Z,15.67
2018-04-18T09:12:18.995Z,16.90
2018-04-18T09:14:45.340Z,23.33
2018-04-18T09:17:11.664Z,12.93
2018-04-18T09:19:37.995Z,17.60
2018-04-18T09:22:04.352Z,16.27
2018-04-18T09:24:30.625Z,25.50
2018-04-18T09:26:57.692Z,16.13
2018-04-18T09:29:24.055Z,16.30
2018-04-18T09:31:50.337Z,16.07
2018-04-18T09:34:16.657Z,14.67
2018-04-18T09:36:43.737Z,21.50
2018-04-18T09:39:10.075Z,18.50
2018-04-18T09:41:36.370Z,18.13
2018-04-18T09:44:03.411Z,14.90
2018-04-18T09:46:30.512Z,16.33
2018-04-18T09:48:56.834Z,14.80
2018-04-18T09:51:23.188Z,19.73
2018-04-18T09:53:49.546Z,13.93
2018-04-18T09:56:16.590Z,15.70
2018-04-18T09:58:43.009Z,18.80
2018-04-18T10:01:09.300Z,11.17
2018-04-18T10:03:45.651Z,15.53
2018-04-18T10:06:12.051Z,16.67
2018-04-18T10:08:39.121Z,17.10
2018-04-18T10:11:06.176Z,17.60
2018-04-18T10:13:32.517Z,22.20
2018-04-18T10:15:58.875Z,15.40
2018-04-18T10:18:25.159Z,10.80
2018-04-18T10:20:52.238Z,12.87
2018-04-18T10:23:18.783Z,15.87
2018-04-18T10:25:45.165Z,16.57
2018-04-18T10:28:11.455Z,9.87
2018-04-18T10:30:38.108Z,18.80
2018-04-18T10:33:04.438Z,15.57
2018-04-18T10:35:30.792Z,14.23
2018-04-18T10:37:57.128Z,17.07
2018-04-18T10:40:24.136Z,19.73
2018-04-18T10:42:50.444Z,13.77
2018-04-18T10:45:16.815Z,16.50
2018-04-18T10:47:43.959Z,17.10
2018-04-18T10:50:10.373Z,11.57
2018-04-18T10:52:36.745Z,16.30
2018-04-18T10:55:03.076Z,13.30
2018-04-18T10:57:29.386Z,20.37
2018-04-18T10:59:55.737Z,15.53
2018-04-18T11:02:22.049Z,21.93
2018-04-18T11:04:48.353Z,18.73
2018-04-18T11:07:14.666Z,22.87
2018-04-18T11:09:40.974Z,17.23
2018-04-18T11:12:07.365Z,20.23
2018-04-18T11:14:33.727Z,17.43
2018-04-18T11:17:00.026Z,15.17
2018-04-18T11:19:26.362Z,21.37
2018-04-18T11:21:53.383Z,15.73
2018-04-18T11:24:19.776Z,18.20
2018-04-18T11:26:46.054Z,17.00
2018-04-18T11:29:12.365Z,16.90
2018-04-18T11:31:38.694Z,21.53
2018-04-18T11:34:05.052Z,16.50
2018-04-18T11:36:31.379Z,18.30
2018-04-18T11:38:57.925Z,17.83
2018-04-18T11:41:24.220Z,15.70
2018-04-18T11:43:51.309Z,13.70
2018-04-18T11:46:17.633Z,16.43
2018-04-18T11:48:43.967Z,17.53
2018-04-18T11:51:10.336Z,13.90
2018-04-18T11:53:36.637Z,19.47
2018-04-18T11:56:02.942Z,14.83
2018-04-18T11:58:29.217Z,13.93
2018-04-18T12:00:55.632Z,13.10
2018-04-18T12:03:21.934Z,15.30
2018-04-18T12:05:48.221Z,11.80
2018-04-18T12:08:14.507Z,13.27
2018-04-18T12:10:40.753Z,14.77
2018-04-18T12:13:07.069Z,13.93
2018-04-18T12:15:33.389Z,14.80
2018-04-18T12:17:59.727Z,18.03
2018-04-18T12:20:26.035Z,11.10
2018-04-18T12:22:52.373Z,11.97
2018-04-18T12:25:18.665Z,12.83
2018-04-18T12:27:44.989Z,13.13
2018-04-18T12:30:11.278Z,13.07
2018-04-18T12:32:37.569Z,16.70
2018-04-18T12:35:03.831Z,7.60
2018-04-18T12:37:32.728Z,12.67
2018-04-18T12:39:59.124Z,12.80
2018-04-18T12:42:26.141Z,12.20
2018-04-18T12:44:52.485Z,12.20
2018-04-18T12:47:18.821Z,14.07
2018-04-18T12:49:45.098Z,16.37
2018-04-18T12:52:11.391Z,14.63
2018-04-18T12:54:37.647Z,16.47
2018-04-18T12:57:04.062Z,15.23
2018-04-18T12:59:31.115Z,12.30
2018-04-18T13:01:57.365Z,12.17
2018-04-18T13:04:23.637Z,11.90
2018-04-18T13:06:49.950Z,9.30
2018-04-18T13:09:16.264Z,9.00
2018-04-18T13:11:45.107Z,8.90
2018-04-18T13:14:11.399Z,9.43
2018-04-18T13:16:37.677Z,11.63
2018-04-18T13:19:04.731Z,12.33
2018-04-18T13:21:31.809Z,16.13
2018-04-18T13:23:58.130Z,13.00
2018-04-18T13:26:24.483Z,11.17
2018-04-18T13:28:50.830Z,12.33
2018-04-18T13:31:17.226Z,11.10
2018-04-18T13:33:43.590Z,9.27
2018-04-18T13:36:09.890Z,10.00
2018-04-18T13:38:36.190Z,10.73
2018-04-18T13:41:03.257Z,8.93
2018-04-18T13:43:30.295Z,9.70
2018-04-18T13:45:57.351Z,9.63
2018-04-18T13:48:23.740Z,7.50
2018-04-18T13:50:50.019Z,9.40
2018-04-18T13:53:16.394Z,9.87
2018-04-18T13:55:42.690Z,9.40
2018-04-18T13:58:09.021Z,13.83
2018-04-18T14:00:35.343Z,10.70
2018-04-18T14:03:01.706Z,9.53
2018-04-18T14:05:28.031Z,8.57
2018-04-18T14:07:54.372Z,10.77
2018-04-18T14:10:20.682Z,7.80
2018-04-18T14:12:46.974Z,12.13
2018-04-18T14:15:14.037Z,10.13
2018-04-18T14:17:40.334Z,13.07
2018-04-18T14:20:06.658Z,11.70
2018-04-18T14:22:33.689Z,13.53
2018-04-18T14:25:00.033Z,10.23
2018-04-18T14:27:26.340Z,10.43
2018-04-18T14:29:52.673Z,11.77
2018-04-18T14:32:19.110Z,15.60
2018-04-18T14:34:45.447Z,11.27
2018-04-18T14:37:11.709Z,11.33
2018-04-18T14:39:38.039Z,11.10
2018-04-18T14:42:04.358Z,10.33
2018-04-18T14:44:30.668Z,9.33
2018-04-18T14:46:57.019Z,11.03
2018-04-18T14:49:23.382Z,11.77
2018-04-18T14:51:50.452Z,12.03
2018-04-18T14:54:16.904Z,15.50
2018-04-18T14:56:43.240Z,10.47
2018-04-18T14:59:09.564Z,10.00
2018-04-18T15:01:35.887Z,13.03
2018-04-18T15:04:02.182Z,8.70
2018-04-18T15:06:28.484Z,10.50
2018-04-18T15:08:54.763Z,8.87
2018-04-18T15:11:21.837Z,8.10
2018-04-18T15:13:48.164Z,9.93
2018-04-18T15:16:14.460Z,9.33
2018-04-18T15:18:41.713Z,11.83
2018-04-18T15:21:08.794Z,9.80
2018-04-18T15:23:35.168Z,13.87
2018-04-18T15:26:01.496Z,9.20
2018-04-18T15:28:27.907Z,7.43
2018-04-18T15:30:54.300Z,9.83
2018-04-18T15:33:21.676Z,8.37
2018-04-18T15:35:48.043Z,7.47
2018-04-18T15:38:14.388Z,9.73
2018-04-18T15:40:40.724Z,7.40
2018-04-18T15:43:07.821Z,9.40
2018-04-18T15:45:34.154Z,8.80
2018-04-18T15:48:00.493Z,7.67
2018-04-18T15:50:26.845Z,8.03
2018-04-18T15:52:53.177Z,8.03
2018-04-18T15:55:19.506Z,8.13
2018-04-18T15:57:45.850Z,8.30
2018-04-18T16:00:12.142Z,10.97
2018-04-18T16:02:38.478Z,11.40
2018-04-18T16:05:04.798Z,9.77
2018-04-18T16:07:31.902Z,10.40
2018-04-18T16:09:58.209Z,10.63
2018-04-18T16:12:25.354Z,10.27
2018-04-18T16:14:52.506Z,8.90
2018-04-18T16:17:18.850Z,10.07
2018-04-18T16:19:45.280Z,9.93
2018-04-18T16:22:11.631Z,15.03
2018-04-18T16:24:38.177Z,11.40
2018-04-18T16:27:05.277Z,10.77
2018-04-18T16:29:42.746Z,12.03
2018-04-18T16:32:09.118Z,11.87
2018-04-18T16:34:35.684Z,10.20
2018-04-18T16:37:02.025Z,11.57
2018-04-18T16:39:29.091Z,15.60
2018-04-18T16:41:56.146Z,9.10
2018-04-18T16:44:22.650Z,13.10
2018-04-18T16:46:48.984Z,13.60
2018-04-18T16:49:15.288Z,13.40
2018-04-18T16:51:41.564Z,18.00
2018-04-18T16:54:08.665Z,10.57
2018-04-18T16:56:35.018Z,14.37
2018-04-18T16:59:01.296Z,11.13
2018-04-18T17:01:27.594Z,10.90
2018-04-18T17:03:54.650Z,12.80
2018-04-18T17:06:21.766Z,10.93
2018-04-18T17:08:48.245Z,9.97
2018-04-18T17:11:14.723Z,13.20
2018-04-18T17:13:41.159Z,13.43
2018-04-18T17:16:07.830Z,10.87
2018-04-18T17:18:34.154Z,9.73
2018-04-18T17:21:00.549Z,11.20
2018-04-18T17:23:26.905Z,13.23
2018-04-18T17:25:53.238Z,12.97
2018-04-18T17:28:19.579Z,18.60
2018-04-18T17:30:46.690Z,15.77
2018-04-18T17:33:13.131Z,12.47
2018-04-18T17:35:40.270Z,13.43
2018-04-18T17:38:06.565Z,13.23
2018-04-18T17:40:33.661Z,11.70
2018-04-18T17:43:00.014Z,14.90
2018-04-18T17:45:26.549Z,14.37
2018-04-18T17:47:53.012Z,15.83
2018-04-18T17:50:20.063Z,14.53
2018-04-18T17:52:47.181Z,19.07
2018-04-18T17:55:13.518Z,19.03
2018-04-18T17:57:42.206Z,30.93
2018-04-18T18:00:08.590Z,18.40
2018-04-18T18:02:34.936Z,12.20
2018-04-18T18:05:02.074Z,13.77
2018-04-18T18:07:28.395Z,18.93
2018-04-18T18:09:54.725Z,10.50
2018-04-18T18:12:21.113Z,14.30
2018-04-18T18:14:47.389Z,14.47
2018-04-18T18:17:13.724Z,16.93
2018-04-18T18:19:39.996Z,15.77
2018-04-18T18:22:06.322Z,14.43
2018-04-18T18:24:32.623Z,11.73
2018-04-18T18:26:58.925Z,14.33
2018-04-18T18:29:25.968Z,28.77
2018-04-18T18:31:53.076Z,15.67
2018-04-18T18:34:19.362Z,17.13
2018-04-18T18:36:45.729Z,20.37
2018-04-18T18:39:12.061Z,20.83
2018-04-18T18:41:38.360Z,17.67
2018-04-18T18:44:04.660Z,16.00
2018-04-18T18:46:30.978Z,17.30
2018-04-18T18:48:57.318Z,15.90
2018-04-18T18:51:24.373Z,19.70
2018-04-18T18:53:51.506Z,16.10
2018-04-18T18:56:18.204Z,16.33
2018-04-18T18:58:44.590Z,18.37
2018-04-18T19:01:11.754Z,17.70
2018-04-18T19:03:39.152Z,18.13
2018-04-18T19:06:05.692Z,27.90
2018-04-18T19:08:32.082Z,24.30
2018-04-18T19:10:59.497Z,17.57
2018-04-18T19:13:26.685Z,19.10
2018-04-18T19:15:53.777Z,20.37
2018-04-18T19:18:20.119Z,20.67
2018-04-18T19:20:46.427Z,27.93
2018-04-18T19:23:12.724Z,22.70
2018-04-18T19:25:39.764Z,20.33
2018-04-18T19:28:06.164Z,16.57
2018-04-18T19:30:32.418Z,20.23
2018-04-18T19:32:58.716Z,25.80
2018-04-18T19:35:25.039Z,23.63
2018-04-18T19:37:51.403Z,19.87
2018-04-18T19:40:17.689Z,24.90
2018-04-18T19:42:51.303Z,21.27
2018-04-18T19:45:17.629Z,22.50
2018-04-18T19:47:43.998Z,22.60
2018-04-18T19:50:10.306Z,21.10
2018-04-18T19:52:36.598Z,16.70
2018-04-18T19:55:02.952Z,20.43
2018-04-18T19:57:29.248Z,23.90
2018-04-18T19:59:56.282Z,34.27
2018-04-18T20:02:23.391Z,36.97
2018-04-18T20:04:49.728Z,59.03
2018-04-18T20:07:16.029Z,54.47
2018-04-18T20:09:42.774Z,60.37
2018-04-18T20:12:09.123Z,58.90
2018-04-18T20:14:35.415Z,54.10
2018-04-18T20:17:02.436Z,61.47
2018-04-18T20:19:28.695Z,42.73
2018-04-18T20:21:55.726Z,44.93
2018-04-18T20:24:21.997Z,49.10
2018-04-18T20:26:48.260Z,32.20
2018-04-18T20:29:14.544Z,30.70
2018-04-18T20:31:41.568Z,27.03
2018-04-18T20:34:08.626Z,29.63
2018-04-18T20:36:40.797Z,26.20
2018-04-18T20:39:07.950Z,27.03
2018-04-18T20:41:34.989Z,35.00
2018-04-18T20:44:02.012Z,27.63
2018-04-18T20:46:28.291Z,28.43
2018-04-18T20:48:54.587Z,26.53
2018-04-18T20:51:20.868Z,31.47
2018-04-18T20:53:47.194Z,26.07
2018-04-18T20:56:13.490Z,29.97
2018-04-18T20:58:40.568Z,27.37
2018-04-18T21:01:06.875Z,27.23
2018-04-18T21:03:34.785Z,29.57
2018-04-18T21:06:01.055Z,21.97
2018-04-18T21:08:28.108Z,27.30
2018-04-18T21:10:55.150Z,26.93
2018-04-18T21:13:21.466Z,25.87
2018-04-18T21:15:47.759Z,23.80
2018-04-18T21:18:14.084Z,31.13
2018-04-18T21:20:40.367Z,37.50
2018-04-18T21:23:06.736Z,22.07
2018-04-18T21:25:33.003Z,23.20
2018-04-18T21:27:59.257Z,21.57
2018-04-18T21:30:27.039Z,29.90
2018-04-18T21:32:54.058Z,25.30
2018-04-18T21:35:20.344Z,21.83
2018-04-18T21:37:46.610Z,25.93
2018-04-18T21:40:13.320Z,27.17
2018-04-18T21:42:39.601Z,24.60
2018-04-18T21:45:05.880Z,19.47
2018-04-18T21:47:32.126Z,18.83
2018-04-18T21:49:58.537Z,24.67
2018-04-18T21:52:24.837Z,21.80
2018-04-18T21:54:51.864Z,20.57
2018-04-18T21:57:18.160Z,20.67
2018-04-18T21:59:44.469Z,19.90
2018-04-18T22:02:10.759Z,34.23
2018-04-18T22:04:37.047Z,19.90
2018-04-18T22:07:03.323Z,23.10
2018-04-18T22:09:29.645Z,29.13
2018-04-18T22:11:55.922Z,29.80
2018-04-18T22:14:22.201Z,20.17
2018-04-18T22:16:48.521Z,25.87
2018-04-18T22:19:14.777Z,26.23
2018-04-18T22:21:41.138Z,26.23
2018-04-18T22:24:08.179Z,23.83
2018-04-18T22:26:35.207Z,20.63
2018-04-18T22:29:01.467Z,27.90
2018-04-18T22:31:27.751Z,26.10
2018-04-18T22:33:54.021Z,39.53
2018-04-18T22:36:20.315Z,30.03
2018-04-18T22:38:46.582Z,33.00
2018-04-18T22:41:13.113Z,33.33
2018-04-18T22:43:40.147Z,35.70
2018-04-18T22:46:07.177Z,26.73
2018-04-18T22:48:34.967Z,27.73
2018-04-18T22:51:01.981Z,30.33
2018-04-18T22:53:28.243Z,25.80
2018-04-18T22:55:56.221Z,31.53
2018-04-18T22:58:22.515Z,30.50
2018-04-18T23:00:49.631Z,27.40
2018-04-18T23:03:15.950Z,31.37
2018-04-18T23:05:42.263Z,28.57
2018-04-18T23:08:08.576Z,25.87
2018-04-18T23:10:34.890Z,27.80
2018-04-18T23:13:01.192Z,27.67
2018-04-18T23:15:27.487Z,28.20
2018-04-18T23:17:55.361Z,27.20
2018-04-18T23:20:21.717Z,27.27
2018-04-18T23:22:47.911Z,29.67
2018-04-18T23:25:14.200Z,29.63
2018-04-18T23:27:40.486Z,28.70
2018-04-18T23:30:06.732Z,25.60
2018-04-18T23:32:33.025Z,29.43
2018-04-18T23:35:00.064Z,27.43
2018-04-18T23:37:26.365Z,29.23
2018-04-18T23:39:52.652Z,30.27
2018-04-18T23:42:19.224Z,35.23
2018-04-18T23:44:45.574Z,29.80
2018-04-18T23:47:12.851Z,24.90
2018-04-18T23:49:39.175Z,22.83
2018-04-18T23:52:06.223Z,29.60
2018-04-18T23:54:33.290Z,29.40
2018-04-18T23:57:00.323Z,21.70
2018-04-18T23:59:27.363Z,27.80
